메인 페이지
METAR-TAF:

METAR-TAF

공항 :

코토팍시 국제공항

Latacunga, 에콰도르

위도: 00-55S, 경도: 078-37W, 고도: 2785m

현재 날씨관측

예보는 48분 전, 19:00시(UTC)에 발표되었습니다.
17kt
온도 18°C
습도 56%
기압 1029 hPa
시정 10km 이상
고도 3000ft 상공 구름 많음
고도 30000ft 상공 구름 많음

METAR: SELT 181900Z 17017KT 9999 BKN030 BKN300 18/09 Q1029

시각: 14:48 (19:48 UTC)

예보

예보는 2 시간 23분 전, 17:25시(UTC)에 발표되었습니다.
예보 대상 시간: 18일 18시부터 19일 18시까지 (UTC)
15kt
시정 10km 이상
고도 3000ft 상공 구름 많음
전환 중
19일 00시부터 19일 02시까지 (UTC)
4kt
고도 1500ft 상공 구름 조금
고도 2600ft 상공 구름 많음
전환 중
19일 13시부터 19일 15시까지 (UTC)
14kt
고도 3000ft 상공 구름 보통
고도 30000ft 상공 구름 많음

TAF: SELT 181725Z 1818/1918 18015KT 9999 BKN030 BECMG 1900/1902 18004KT FEW015 BKN026 BECMG 1913/1915 18014KT SCT030 BKN300 TX19/1819Z TN08/1911Z

4,000개 이상의 공항 관측 자료 및 예보 (METAR 및 TAF 보고).

지도상에서 검색 가능한 기상관측소가 노란 점과 빨간 점으로 표시되어 있습니다.

기상관측소 명을 보려면 표시 위로 마우스를 이동하세요.

날씨 관측과 예보를 보려면 클릭하세요.

지도 변경 : 확대하려면 엑스 표시가 있는 녹색 버튼, 축소하려면 빼기 표시가 있는 녹색 버튼, 다음 페이지의 지도를 보려면 녹색 화살표를 클릭하세요.


METAR-TAF: